Time;durP1;ratioP1;P1;durP2;ratioP2;P2;SDS_P1;SDS_P2;PMS_P1;PMS_P2;Temp;Humidity;BMP_temperature;BMP_pressure;BME280_temperature;BME280_humidity;BME280_pressure;Samples;Min_cycle;Max_cycle;Signal;HPM_P1;HPM_P2
2023/05/15 00:00:00;;;;;;;7.85;7.10;;;;;;;15.01;91.55;99175.53;5112502;28;20406;-81
2023/05/15 00:02:26;;;;;;;8.25;7.40;;;;;;;14.78;91.33;99147.50;5112604;28;20123;-81
2023/05/15 00:04:52;;;;;;;7.50;6.68;;;;;;;14.76;91.54;99133.69;5112394;28;20019;-81
2023/05/15 00:07:17;;;;;;;8.63;7.68;;;;;;;14.76;91.78;99125.84;5112554;28;20024;-81
2023/05/15 00:09:42;;;;;;;8.20;7.30;;;;;;;14.61;91.72;99115.47;5112139;28;20477;-81
2023/05/15 00:12:08;;;;;;;8.45;7.57;;;;;;;14.59;92.25;99127.03;5112473;28;20032;-81
2023/05/15 00:14:33;;;;;;;7.85;7.05;;;;;;;14.50;92.63;99128.53;5112595;28;20371;-81
2023/05/15 00:16:58;;;;;;;8.25;7.45;;;;;;;14.56;93.49;99138.56;5112273;28;20475;-81
2023/05/15 00:19:24;;;;;;;8.25;7.43;;;;;;;14.51;93.52;99137.22;5112723;28;20035;-81
2023/05/15 00:21:49;;;;;;;7.97;7.28;;;;;;;14.41;94.05;99132.63;5112151;28;20031;-81
2023/05/15 00:24:15;;;;;;;9.07;8.13;;;;;;;14.29;95.04;99111.69;5112169;28;20031;-81
2023/05/15 00:26:40;;;;;;;9.13;8.20;;;;;;;14.26;95.02;99102.25;5112241;28;20019;-81
2023/05/15 00:29:05;;;;;;;9.73;7.43;;;;;;;14.10;95.24;99078.91;5112618;28;20475;-81
2023/05/15 00:31:32;;;;;;;9.30;8.10;;;;;;;14.13;95.40;99076.09;5112442;28;20019;-81
2023/05/15 00:33:57;;;;;;;8.45;7.65;;;;;;;14.36;95.38;99102.41;5112076;28;20154;-81
2023/05/15 00:36:24;;;;;;;9.25;7.95;;;;;;;14.26;95.43;99096.19;5112293;28;20106;-81
2023/05/15 00:38:50;;;;;;;8.95;8.05;;;;;;;14.22;95.83;99085.06;5111914;28;20031;-81
2023/05/15 00:41:16;;;;;;;9.10;7.75;;;;;;;14.11;96.37;99066.66;5115402;28;20032;-81
2023/05/15 00:43:42;;;;;;;8.38;7.35;;;;;;;14.09;96.47;99056.28;5116218;28;20073;-81
2023/05/15 00:46:09;;;;;;;7.85;7.05;;;;;;;14.33;96.04;99084.31;5116501;28;20028;-81
2023/05/15 00:48:35;;;;;;;7.90;7.13;;;;;;;14.24;95.63;99062.22;5116254;28;20042;-81
2023/05/15 00:51:00;;;;;;;8.52;7.78;;;;;;;14.44;95.83;99079.13;5116012;28;20015;-81
2023/05/15 00:53:27;;;;;;;9.00;8.07;;;;;;;14.25;95.12;99040.34;5063438;28;20406;-81
2023/05/15 00:55:56;;;;;;;8.55;7.80;;;;;;;14.23;95.14;99040.44;5116188;28;20107;-81
2023/05/15 00:58:22;;;;;;;8.43;7.57;;;;;;;14.26;95.16;99042.00;5116084;28;20039;-81
2023/05/15 01:00:49;;;;;;;7.75;7.05;;;;;;;14.39;95.82;99068.16;5115786;28;20024;-81
2023/05/15 01:03:15;;;;;;;8.82;7.93;;;;;;;14.16;95.92;99030.53;5115917;28;20084;-81
2023/05/15 01:05:40;;;;;;;8.40;7.43;;;;;;;14.18;96.70;99036.47;5115938;28;20028;-81
2023/05/15 01:08:22;;;;;;;9.38;8.23;;;;;;;14.12;96.84;99023.81;5115639;28;20046;-81
2023/05/15 01:10:48;;;;;;;8.98;7.93;;;;;;;14.36;96.92;99043.00;5115774;28;20155;-81
2023/05/15 01:13:15;;;;;;;8.20;7.43;;;;;;;14.34;96.97;99044.06;5115716;28;20109;-81
2023/05/15 01:15:40;;;;;;;10.00;8.65;;;;;;;14.13;96.93;99021.09;5115825;28;20024;-81
2023/05/15 01:18:06;;;;;;;10.48;9.48;;;;;;;14.17;97.43;99047.91;5115759;28;20093;-81
2023/05/15 01:20:49;;;;;;;9.43;8.45;;;;;;;13.96;98.10;99013.59;5115638;28;20092;-81
2023/05/15 01:23:27;;;;;;;10.80;9.70;;;;;;;13.94;97.56;98999.75;5115750;28;20034;-81
2023/05/15 01:26:14;;;;;;;9.85;8.88;;;;;;;14.07;97.42;99026.75;5115684;28;20351;-81
2023/05/15 01:28:47;;;;;;;10.43;9.32;;;;;;;13.94;97.36;99003.22;5115399;28;20474;-81
2023/05/15 01:31:20;;;;;;;10.93;9.35;;;;;;;13.85;97.61;98996.00;5115587;28;20024;-81
2023/05/15 01:33:53;;;;;;;10.52;9.52;;;;;;;13.87;97.85;99002.00;5115209;28;20058;-81
2023/05/15 01:36:45;;;;;;;10.45;9.45;;;;;;;13.89;97.96;99012.34;5115807;28;20032;-81
2023/05/15 01:39:12;;;;;;;11.23;10.00;;;;;;;13.77;98.67;98984.41;5115399;28;20123;-81
2023/05/15 01:41:45;;;;;;;11.05;9.98;;;;;;;13.95;98.60;99007.53;5115575;28;20467;-81
2023/05/15 01:44:18;;;;;;;11.38;10.18;;;;;;;13.83;98.70;98982.22;5115420;28;20024;-81
2023/05/15 01:46:50;;;;;;;11.98;9.98;;;;;;;13.88;98.05;98987.13;5115357;28;20068;-81
2023/05/15 01:49:18;;;;;;;11.20;10.20;;;;;;;13.82;98.12;98980.53;5115048;28;20115;-81
2023/05/15 01:51:47;;;;;;;14.63;11.65;;;;;;;13.83;98.10;98981.38;5114689;28;20023;-81
2023/05/15 01:54:14;;;;;;;13.07;11.38;;;;;;;14.03;98.44;98995.66;5115473;28;20066;-81
2023/05/15 01:56:40;;;;;;;12.70;11.20;;;;;;;13.90;98.85;98995.69;5115138;28;20028;-81
2023/05/15 01:59:07;;;;;;;12.45;11.25;;;;;;;13.86;99.54;98981.13;5114745;28;20036;-81
2023/05/15 02:01:35;;;;;;;12.25;11.10;;;;;;;13.68;99.98;98963.19;5078846;28;20104;-81
2023/05/15 02:04:02;;;;;;;12.00;10.80;;;;;;;13.66;99.93;98975.53;5114558;28;20027;-81
2023/05/15 02:06:28;;;;;;;12.85;11.60;;;;;;;13.44;100.00;98941.34;5114752;28;20032;-81
2023/05/15 02:08:56;;;;;;;13.63;12.23;;;;;;;13.59;100.00;98976.06;5114589;28;20062;-81
2023/05/15 02:11:22;;;;;;;14.32;12.93;;;;;;;13.64;100.00;98969.56;5114947;28;20028;-81
2023/05/15 02:13:49;;;;;;;14.18;12.88;;;;;;;13.45;100.00;98943.88;5114248;28;20407;-81
2023/05/15 02:16:14;;;;;;;14.60;13.25;;;;;;;13.60;100.00;98941.94;5114688;28;20028;-81
2023/05/15 02:18:40;;;;;;;15.65;14.05;;;;;;;13.46;100.00;98911.53;5114608;28;20440;-81
2023/05/15 02:21:05;;;;;;;16.90;15.10;;;;;;;13.40;100.00;98908.50;5114193;28;20534;-81
2023/05/15 02:23:30;;;;;;;18.38;16.48;;;;;;;13.47;100.00;98925.44;5114614;28;20027;-81
2023/05/15 02:26:20;;;;;;;17.40;15.60;;;;;;;13.54;100.00;98929.31;5114405;28;20369;-81
2023/05/15 02:29:29;;;;;;;16.02;14.43;;;;;;;13.53;100.00;98932.88;5114445;28;20035;-81
2023/05/15 02:32:21;;;;;;;17.10;14.32;;;;;;;13.63;100.00;98919.97;5114328;28;20024;-81
2023/05/15 02:34:49;;;;;;;17.10;15.32;;;;;;;13.67;100.00;98917.03;5114134;28;20021;-81
2023/05/15 02:37:23;;;;;;;17.45;15.60;;;;;;;13.74;100.00;98906.97;5114213;28;20027;-81
2023/05/15 02:39:53;;;;;;;17.48;15.73;;;;;;;13.66;100.00;98899.66;5113769;28;20114;-81
2023/05/15 02:42:19;;;;;;;17.08;15.32;;;;;;;13.63;100.00;98885.94;5114207;28;20019;-81
2023/05/15 02:44:46;;;;;;;17.30;15.60;;;;;;;13.33;100.00;98855.78;5114168;28;20027;-81
2023/05/15 02:47:13;;;;;;;17.23;15.43;;;;;;;13.44;100.00;98892.50;5113823;28;20027;-81
2023/05/15 02:49:38;;;;;;;19.70;17.70;;;;;;;13.48;100.00;98888.72;5113934;28;20034;-81
2023/05/15 02:52:04;;;;;;;18.05;16.25;;;;;;;13.47;100.00;98876.56;5113595;28;20023;-81
2023/05/15 02:54:29;;;;;;;18.15;16.23;;;;;;;13.34;100.00;98872.31;5113999;28;20027;-81
2023/05/15 02:56:55;;;;;;;17.30;15.55;;;;;;;13.37;100.00;98862.47;5113862;28;20379;-81
2023/05/15 02:59:20;;;;;;;18.10;16.27;;;;;;;13.46;100.00;98863.59;5114011;28;20134;-81
2023/05/15 03:01:46;;;;;;;16.60;14.95;;;;;;;13.43;100.00;98855.97;5113905;28;20020;-81
2023/05/15 03:04:15;;;;;;;17.55;15.75;;;;;;;13.32;100.00;98846.28;5112576;28;20035;-81
2023/05/15 03:06:40;;;;;;;17.55;15.75;;;;;;;13.21;100.00;98822.63;5113565;28;20019;-81
2023/05/15 03:09:06;;;;;;;17.55;15.65;;;;;;;13.14;100.00;98805.69;5113496;28;20517;-81
2023/05/15 03:11:31;;;;;;;16.80;15.20;;;;;;;13.12;100.00;98823.28;5113996;28;20027;-81
2023/05/15 03:13:58;;;;;;;15.63;13.98;;;;;;;13.20;100.00;98849.72;5113241;28;20079;-81
2023/05/15 03:16:24;;;;;;;16.60;15.00;;;;;;;13.03;100.00;98822.16;5113579;28;20020;-81
2023/05/15 03:18:49;;;;;;;16.48;14.80;;;;;;;13.22;100.00;98838.22;5113468;28;20482;-81
2023/05/15 03:21:16;;;;;;;17.08;15.30;;;;;;;13.34;100.00;98843.53;5113022;28;20024;-81
2023/05/15 03:23:41;;;;;;;16.48;14.88;;;;;;;13.23;100.00;98810.28;5113447;28;20467;-81
2023/05/15 03:26:07;;;;;;;14.85;13.32;;;;;;;13.40;100.00;98827.41;5113044;28;20019;-81
2023/05/15 03:28:32;;;;;;;17.63;15.80;;;;;;;13.44;100.00;98832.34;5113287;28;20034;-82
2023/05/15 03:30:57;;;;;;;18.05;16.35;;;;;;;13.24;100.00;98827.69;5112899;28;20176;-81
2023/05/15 03:33:24;;;;;;;16.67;14.98;;;;;;;13.19;100.00;98809.66;5113121;28;20030;-81
2023/05/15 03:35:51;;;;;;;16.45;14.68;;;;;;;13.21;100.00;98805.16;5113060;28;20106;-81
2023/05/15 03:38:16;;;;;;;17.42;15.82;;;;;;;13.05;100.00;98793.28;5113068;28;20019;-81
2023/05/15 03:40:41;;;;;;;16.98;15.10;;;;;;;12.91;100.00;98789.84;5113168;28;20027;-81
2023/05/15 03:43:06;;;;;;;17.23;14.70;;;;;;;12.80;100.00;98753.16;5112724;28;20068;-81
2023/05/15 03:45:34;;;;;;;16.08;14.43;;;;;;;12.93;100.00;98787.94;5112948;28;20084;-81
2023/05/15 03:47:59;;;;;;;15.70;14.20;;;;;;;12.66;100.00;98748.09;5112470;28;20031;-81
2023/05/15 03:50:24;;;;;;;17.02;15.20;;;;;;;12.82;100.00;98787.06;5112752;28;20486;-81
2023/05/15 03:52:50;;;;;;;17.38;13.77;;;;;;;12.70;100.00;98789.56;5112951;28;20028;-81
2023/05/15 03:55:15;;;;;;;14.40;13.00;;;;;;;12.89;100.00;98815.28;5112725;28;20450;-81
2023/05/15 03:57:41;;;;;;;15.55;13.93;;;;;;;12.73;100.00;98791.97;5112619;28;20033;-81
2023/05/15 04:00:09;;;;;;;14.10;12.77;;;;;;;12.66;100.00;98769.81;5112604;28;20099;-81
2023/05/15 04:02:36;;;;;;;14.27;12.88;;;;;;;12.83;100.00;98788.72;5112589;28;20051;-81
2023/05/15 04:05:03;;;;;;;14.88;13.00;;;;;;;12.85;100.00;98772.00;5112263;28;20081;-81
2023/05/15 04:07:29;;;;;;;12.93;11.75;;;;;;;12.93;100.00;98776.66;5112847;28;20558;-81
2023/05/15 04:09:54;;;;;;;12.63;11.35;;;;;;;12.81;100.00;98773.16;5112558;28;20106;-81
2023/05/15 04:12:21;;;;;;;13.15;11.80;;;;;;;12.91;100.00;98778.56;5112551;28;20020;-81
2023/05/15 04:14:46;;;;;;;12.70;11.40;;;;;;;13.01;100.00;98776.97;5112596;28;20028;-81
2023/05/15 04:17:11;;;;;;;13.82;12.35;;;;;;;13.00;100.00;98764.84;5112359;28;20035;-81
2023/05/15 04:19:37;;;;;;;13.13;11.43;;;;;;;13.19;100.00;98799.22;5112609;28;20024;-81
2023/05/15 04:22:02;;;;;;;12.82;11.52;;;;;;;13.02;100.00;98783.03;5112319;28;20038;-81
2023/05/15 04:24:28;;;;;;;13.23;11.65;;;;;;;13.00;100.00;98770.06;5112438;28;20148;-81
2023/05/15 04:26:53;;;;;;;11.93;10.73;;;;;;;12.99;100.00;98758.78;5112374;28;20024;-81
2023/05/15 04:29:18;;;;;;;12.38;10.40;;;;;;;13.15;100.00;98794.31;5112049;28;20019;-81
2023/05/15 04:31:44;;;;;;;11.75;10.55;;;;;;;13.04;100.00;98781.97;5112332;28;20032;-81
2023/05/15 04:34:09;;;;;;;11.98;10.68;;;;;;;13.12;100.00;98794.53;5112006;28;20035;-82
2023/05/15 04:36:34;;;;;;;12.32;11.10;;;;;;;13.02;100.00;98772.56;5112461;28;20019;-81
2023/05/15 04:39:00;;;;;;;12.25;11.07;;;;;;;13.17;100.00;98801.09;5112181;28;20016;-82
2023/05/15 04:41:25;;;;;;;12.38;11.23;;;;;;;12.94;100.00;98754.84;5112306;28;20391;-81
2023/05/15 04:43:50;;;;;;;11.65;10.55;;;;;;;13.09;100.00;98766.81;5112228;28;20030;-81
2023/05/15 04:46:16;;;;;;;12.30;10.65;;;;;;;13.23;100.00;98782.41;5112004;28;20031;-82
2023/05/15 04:48:41;;;;;;;12.60;11.40;;;;;;;13.36;100.00;98790.19;5112004;28;20034;-82
2023/05/15 04:51:06;;;;;;;13.38;12.05;;;;;;;13.20;100.00;98779.97;5093800;28;20032;-82
2023/05/15 04:53:32;;;;;;;12.18;10.95;;;;;;;12.92;100.00;98727.97;5112239;28;20110;-82
2023/05/15 04:55:57;;;;;;;13.25;11.95;;;;;;;13.05;100.00;98744.44;5112024;28;20039;-81
2023/05/15 04:58:23;;;;;;;12.02;10.73;;;;;;;13.19;100.00;98773.06;5112144;28;20065;-82
2023/05/15 05:00:48;;;;;;;11.93;10.70;;;;;;;13.23;100.00;98765.84;5112367;28;20034;-82
2023/05/15 05:03:13;;;;;;;13.80;12.48;;;;;;;13.03;100.00;98754.19;5111784;28;20020;-81
2023/05/15 05:05:39;;;;;;;12.25;11.15;;;;;;;13.04;100.00;98750.63;5111917;28;20459;-82
2023/05/15 05:08:04;;;;;;;14.30;12.80;;;;;;;12.97;100.00;98752.81;5111740;28;20102;-82
2023/05/15 05:10:30;;;;;;;12.60;11.43;;;;;;;12.97;100.00;98755.44;5112321;28;20155;-83
2023/05/15 05:12:55;;;;;;;12.63;11.43;;;;;;;12.96;100.00;98758.16;5111929;28;20459;-82
2023/05/15 05:15:20;;;;;;;12.50;11.30;;;;;;;13.00;100.00;98741.31;5111881;28;20352;-82
2023/05/15 05:17:45;;;;;;;12.35;11.20;;;;;;;12.84;100.00;98707.59;5111891;28;20031;-82
2023/05/15 05:20:12;;;;;;;12.43;11.27;;;;;;;12.95;100.00;98733.81;5111653;28;20059;-82
2023/05/15 05:22:39;;;;;;;11.52;10.43;;;;;;;12.91;100.00;98740.19;5112043;28;20027;-82
2023/05/15 05:25:05;;;;;;;10.80;9.80;;;;;;;12.62;100.00;98689.97;5111728;28;20031;-82
2023/05/15 05:27:31;;;;;;;11.15;10.13;;;;;;;12.94;100.00;98724.31;5114817;28;20027;-81
2023/05/15 05:29:56;;;;;;;11.35;10.20;;;;;;;13.12;100.00;98750.91;5115780;28;20030;-82
2023/05/15 05:32:21;;;;;;;10.63;9.65;;;;;;;13.02;100.00;98726.38;5115248;28;20539;-82
2023/05/15 05:34:47;;;;;;;11.40;10.30;;;;;;;13.23;100.00;98732.72;5115348;28;20023;-82
2023/05/15 05:37:12;;;;;;;11.27;10.18;;;;;;;13.22;100.00;98725.78;5115141;28;20477;-81
2023/05/15 05:39:37;;;;;;;11.80;10.70;;;;;;;13.11;100.00;98699.56;5115493;28;20034;-82
2023/05/15 05:42:03;;;;;;;11.15;10.00;;;;;;;13.06;100.00;98695.59;5096847;28;20498;-82
2023/05/15 05:44:28;;;;;;;11.60;10.43;;;;;;;13.14;100.00;98707.16;5115182;28;20042;-81
2023/05/15 05:46:54;;;;;;;12.23;10.60;;;;;;;13.16;100.00;98694.00;5115232;28;20034;-82
2023/05/15 05:49:19;;;;;;;13.20;12.00;;;;;;;13.22;100.00;98698.78;5114763;28;20080;-82
2023/05/15 05:51:45;;;;;;;12.80;11.52;;;;;;;13.36;100.00;98714.34;5115324;28;20060;-82
2023/05/15 05:54:11;;;;;;;12.75;11.55;;;;;;;13.20;100.00;98693.66;5115018;28;20030;-81
2023/05/15 05:56:36;;;;;;;13.75;12.32;;;;;;;13.37;100.00;98704.72;5115184;28;20032;-82
2023/05/15 05:59:02;;;;;;;14.10;12.70;;;;;;;13.37;100.00;98707.34;5114773;28;20096;-82
2023/05/15 06:01:27;;;;;;;14.45;13.05;;;;;;;13.48;100.00;98705.59;5114939;28;20035;-82
2023/05/15 06:03:54;;;;;;;12.40;11.13;;;;;;;13.40;100.00;98676.56;5114683;28;20026;-81
2023/05/15 06:06:19;;;;;;;10.68;9.48;;;;;;;13.53;100.00;98686.97;5114821;28;20110;-81
2023/05/15 06:08:45;;;;;;;11.70;10.60;;;;;;;13.39;100.00;98667.03;5114933;28;20051;-82
2023/05/15 06:11:10;;;;;;;12.85;10.93;;;;;;;13.39;100.00;98661.78;5114627;28;20106;-82
2023/05/15 06:13:36;;;;;;;10.38;9.48;;;;;;;13.40;100.00;98660.00;5114541;28;20040;-81
2023/05/15 06:16:01;;;;;;;10.77;9.77;;;;;;;13.32;100.00;98660.59;5114668;28;20034;-82
2023/05/15 06:18:27;;;;;;;11.15;10.15;;;;;;;13.39;100.00;98668.81;5114386;28;20025;-81
2023/05/15 06:20:52;;;;;;;10.75;9.65;;;;;;;13.47;100.00;98672.53;5114756;28;20026;-82
2023/05/15 06:23:18;;;;;;;11.88;10.48;;;;;;;13.47;100.00;98669.91;5114359;28;20028;-82
2023/05/15 06:25:43;;;;;;;13.35;11.95;;;;;;;13.51;100.00;98661.84;5114568;28;20027;-82
2023/05/15 06:28:09;;;;;;;10.27;9.35;;;;;;;13.57;100.00;98641.31;5114226;28;20055;-81
2023/05/15 06:30:34;;;;;;;11.07;10.07;;;;;;;13.68;100.00;98662.25;5114362;28;20107;-81
2023/05/15 06:32:59;;;;;;;10.98;9.95;;;;;;;13.69;100.00;98648.25;5114194;28;20031;-82
2023/05/15 06:35:25;;;;;;;11.48;10.48;;;;;;;13.86;100.00;98659.19;5114296;28;20030;-91
2023/05/15 06:37:51;;;;;;;11.05;10.10;;;;;;;13.86;100.00;98640.88;5094952;28;20043;-91
2023/05/15 06:40:17;;;;;;;10.48;9.50;;;;;;;13.82;100.00;98628.97;5096008;28;20030;-91
2023/05/15 06:42:43;;;;;;;9.68;8.82;;;;;;;13.67;100.00;98612.66;5095958;28;20032;-91
2023/05/15 06:45:09;;;;;;;9.63;8.73;;;;;;;13.89;100.00;98641.47;5095675;28;20043;-91
2023/05/15 06:47:34;;;;;;;11.68;10.48;;;;;;;13.86;100.00;98649.56;5095544;28;20501;-91
2023/05/15 06:49:59;;;;;;;12.70;10.32;;;;;;;13.98;100.00;98664.31;5095909;28;20036;-82
2023/05/15 06:52:25;;;;;;;11.63;9.45;;;;;;;14.07;100.00;98652.31;5113993;28;20035;-80
2023/05/15 06:54:50;;;;;;;11.45;10.35;;;;;;;14.07;100.00;98654.94;5113989;28;20435;-80
2023/05/15 06:57:17;;;;;;;11.80;10.70;;;;;;;14.09;100.00;98646.97;5113441;28;20427;-80
2023/05/15 06:59:42;;;;;;;14.05;12.82;;;;;;;13.76;100.00;98593.63;5113745;28;20037;-80
2023/05/15 07:02:07;;;;;;;11.05;10.00;;;;;;;14.05;100.00;98635.91;5113483;28;20023;-80
2023/05/15 07:04:33;;;;;;;10.98;10.05;;;;;;;13.96;100.00;98639.22;5113887;28;20084;-80
2023/05/15 07:06:58;;;;;;;15.07;13.63;;;;;;;13.86;100.00;98628.63;5113824;28;20039;-80
2023/05/15 07:09:24;;;;;;;14.55;13.25;;;;;;;14.09;100.00;98639.13;5113486;28;20059;-80
2023/05/15 07:11:49;;;;;;;10.43;9.52;;;;;;;13.95;100.00;98616.63;5106232;28;20069;-80
2023/05/15 07:14:15;;;;;;;11.27;10.30;;;;;;;14.01;100.00;98628.41;5100775;28;20058;-80
2023/05/15 07:16:40;;;;;;;12.07;10.98;;;;;;;14.18;100.00;98630.53;5100522;28;20417;-80
2023/05/15 07:19:08;;;;;;;10.40;9.57;;;;;;;14.30;100.00;98632.22;5099913;28;20616;-80
2023/05/15 07:21:33;;;;;;;9.27;8.40;;;;;;;14.20;100.00;98605.91;5100257;28;20475;-80
2023/05/15 07:23:58;;;;;;;10.25;9.38;;;;;;;14.31;100.00;98604.22;5102428;28;20027;-80
2023/05/15 07:26:24;;;;;;;10.00;9.10;;;;;;;14.43;100.00;98605.88;5100407;28;20563;-80
2023/05/15 07:28:50;;;;;;;9.50;8.68;;;;;;;14.70;100.00;98634.31;5094534;28;20028;-81
2023/05/15 07:31:15;;;;;;;10.43;9.30;;;;;;;14.60;100.00;98620.31;5092441;28;20487;-81
2023/05/15 07:33:41;;;;;;;9.32;8.52;;;;;;;14.67;100.00;98606.59;5092742;28;20091;-81
2023/05/15 07:36:06;;;;;;;10.73;9.75;;;;;;;14.87;100.00;98643.47;5092278;28;20024;-81
2023/05/15 07:38:32;;;;;;;9.40;8.50;;;;;;;14.50;100.00;98585.31;5092807;28;20031;-80
2023/05/15 07:40:57;;;;;;;9.32;8.43;;;;;;;14.80;100.00;98639.69;5092536;28;20024;-81
2023/05/15 07:43:22;;;;;;;9.32;8.43;;;;;;;14.56;100.00;98600.53;5092421;28;20035;-81
2023/05/15 07:45:48;;;;;;;9.98;9.07;;;;;;;14.69;100.00;98630.88;5093002;28;20028;-81
2023/05/15 07:48:18;;;;;;;9.85;8.95;;;;;;;14.79;100.00;98635.38;5092095;28;20020;-81
2023/05/15 07:50:45;;;;;;;8.85;8.05;;;;;;;14.58;100.00;98594.22;5092262;28;20028;-81
2023/05/15 07:53:11;;;;;;;9.23;8.27;;;;;;;14.59;100.00;98595.88;5092266;28;20121;-81
2023/05/15 07:55:36;;;;;;;9.25;8.40;;;;;;;14.69;100.00;98599.44;5092766;28;20089;-81
2023/05/15 07:58:01;;;;;;;8.98;8.07;;;;;;;14.89;100.00;98616.19;5092546;28;20062;-81
2023/05/15 08:00:27;;;;;;;8.10;7.40;;;;;;;14.85;100.00;98596.41;5092339;28;20085;-81
2023/05/15 08:02:52;;;;;;;8.38;7.57;;;;;;;14.96;100.00;98604.25;5092131;28;20024;-81
2023/05/15 08:05:17;;;;;;;8.70;7.90;;;;;;;15.06;100.00;98599.06;5092185;28;20028;-80
2023/05/15 08:07:43;;;;;;;10.13;9.32;;;;;;;15.07;100.00;98592.03;5092286;28;20472;-81
2023/05/15 08:10:09;;;;;;;8.80;7.97;;;;;;;15.03;99.60;98586.22;5092023;28;20077;-81
2023/05/15 08:12:35;;;;;;;7.25;6.65;;;;;;;14.95;99.60;98602.56;5092090;28;20051;-81
2023/05/15 08:15:00;;;;;;;8.35;7.60;;;;;;;14.89;99.81;98613.56;5073939;28;20035;-81
2023/05/15 08:17:25;;;;;;;7.18;6.57;;;;;;;14.67;100.00;98592.66;5092118;28;20119;-81
2023/05/15 08:19:51;;;;;;;7.65;7.00;;;;;;;14.68;100.00;98595.16;5092220;28;20077;-81
2023/05/15 08:22:17;;;;;;;7.65;6.97;;;;;;;14.73;100.00;98586.91;5092083;28;20024;-81
2023/05/15 08:24:42;;;;;;;9.27;8.48;;;;;;;15.02;100.00;98616.03;5092090;28;20551;-81
2023/05/15 08:27:08;;;;;;;10.25;9.35;;;;;;;15.03;100.00;98588.84;5092051;28;20032;-81
2023/05/15 08:29:37;;;;;;;9.77;8.88;;;;;;;15.14;100.00;98578.31;5091622;28;20031;-81
2023/05/15 08:32:03;;;;;;;9.82;8.93;;;;;;;15.52;100.00;98608.41;5092104;28;20032;-81
2023/05/15 08:34:29;;;;;;;8.20;7.50;;;;;;;15.46;99.82;98580.03;5091722;28;20491;-81
2023/05/15 08:36:55;;;;;;;8.50;7.70;;;;;;;15.57;99.23;98595.72;5091996;28;20024;-81
2023/05/15 08:39:20;;;;;;;8.25;7.55;;;;;;;15.48;98.44;98591.25;5091735;28;20411;-81
2023/05/15 08:41:59;;;;;;;7.80;7.07;;;;;;;15.48;98.28;98588.63;5091945;28;20020;-81
2023/05/15 08:44:25;;;;;;;27.40;24.60;;;;;;;15.48;98.87;98580.75;5091497;28;20024;-81
2023/05/15 08:46:52;;;;;;;24.45;22.02;;;;;;;15.70;99.22;98601.63;5091908;28;20028;-81
2023/05/15 08:49:29;;;;;;;9.68;8.77;;;;;;;15.83;99.17;98601.41;5091496;28;20067;-81
2023/05/15 08:51:55;;;;;;;8.43;7.63;;;;;;;15.71;99.78;98573.56;5091777;28;20039;-81
2023/05/15 08:54:21;;;;;;;8.90;8.00;;;;;;;16.02;99.29;98571.81;5091547;28;20027;-81
2023/05/15 08:56:46;;;;;;;9.05;8.25;;;;;;;16.55;98.87;98597.00;5091575;28;20116;-81
2023/05/15 08:59:12;;;;;;;8.35;7.55;;;;;;;16.81;95.37;98586.81;5091749;28;20031;-81
2023/05/15 09:01:37;;;;;;;11.05;10.15;;;;;;;17.07;94.53;98590.59;5093601;28;20035;-81
2023/05/15 09:04:03;;;;;;;10.95;10.02;;;;;;;17.02;93.36;98568.28;5095655;28;20036;-81
2023/05/15 09:06:29;;;;;;;8.13;7.45;;;;;;;16.97;91.93;98571.34;5095415;28;20105;-81
2023/05/15 09:08:55;;;;;;;8.30;7.60;;;;;;;17.16;92.28;98597.66;5095655;28;20024;-81
2023/05/15 09:11:23;;;;;;;10.10;9.30;;;;;;;17.21;92.33;98598.06;5095311;28;20028;-81
2023/05/15 09:13:48;;;;;;;7.90;7.30;;;;;;;17.25;92.68;98596.00;5095574;28;20047;-81
2023/05/15 09:16:14;;;;;;;7.57;6.97;;;;;;;17.14;91.60;98582.97;5095351;28;20380;-81
2023/05/15 09:18:40;;;;;;;7.85;7.25;;;;;;;17.13;91.71;98602.34;5095519;28;20032;-81
2023/05/15 09:21:26;;;;;;;8.90;8.02;;;;;;;16.94;92.23;98597.94;5095356;28;20419;-81
2023/05/15 09:23:53;;;;;;;8.73;7.93;;;;;;;16.84;92.76;98595.28;5095060;28;20028;-81
2023/05/15 09:26:20;;;;;;;8.63;7.82;;;;;;;16.46;92.77;98556.56;5095186;28;20059;-81
2023/05/15 09:28:45;;;;;;;10.90;9.88;;;;;;;16.50;93.60;98572.91;5095307;28;20035;-81
2023/05/15 09:31:11;;;;;;;8.68;7.88;;;;;;;16.36;93.30;98566.25;5095189;28;20016;-81
2023/05/15 09:33:38;;;;;;;8.68;7.88;;;;;;;16.37;93.71;98574.00;5094841;28;20024;-81
2023/05/15 09:36:05;;;;;;;8.93;8.13;;;;;;;16.43;94.31;98589.25;5095145;28;20025;-81
2023/05/15 09:38:32;;;;;;;8.80;8.00;;;;;;;16.41;94.48;98591.16;5094587;28;20115;-81
2023/05/15 09:41:06;;;;;;;9.20;8.32;;;;;;;16.44;95.06;98597.94;5095135;28;20047;-81
2023/05/15 09:43:37;;;;;;;10.00;9.10;;;;;;;16.26;95.18;98558.31;5094672;28;20074;-81
2023/05/15 09:46:02;;;;;;;9.77;8.02;;;;;;;16.41;95.13;98599.03;5094931;28;20024;-81
2023/05/15 09:48:29;;;;;;;8.73;7.93;;;;;;;16.19;94.81;98562.47;5094866;28;20026;-81
2023/05/15 09:50:55;;;;;;;8.63;7.82;;;;;;;16.25;94.52;98587.38;5094661;28;20024;-81
2023/05/15 09:53:21;;;;;;;9.40;8.60;;;;;;;16.06;94.35;98562.69;5094667;28;20038;-81
2023/05/15 09:55:47;;;;;;;9.48;8.68;;;;;;;16.15;94.89;98592.59;5094814;28;20028;-81
2023/05/15 09:58:14;;;;;;;11.90;10.32;;;;;;;16.15;95.29;98596.03;5094690;28;20032;-81
2023/05/15 10:00:41;;;;;;;12.50;11.30;;;;;;;16.20;95.53;98593.03;5094423;28;20100;-81
2023/05/15 10:03:08;;;;;;;10.57;9.65;;;;;;;16.34;96.05;98592.63;5076317;28;20085;-81
2023/05/15 10:05:34;;;;;;;11.23;10.27;;;;;;;16.19;95.48;98559.84;5094230;28;20491;-81
2023/05/15 10:08:00;;;;;;;9.55;8.75;;;;;;;16.17;94.86;98522.34;5094581;28;20032;-81
2023/05/15 10:10:27;;;;;;;10.23;9.23;;;;;;;16.56;95.15;98553.97;5094206;28;20069;-81
2023/05/15 10:12:55;;;;;;;11.20;10.27;;;;;;;16.91;94.53;98588.50;5093992;28;20048;-81
2023/05/15 10:15:21;;;;;;;10.20;9.32;;;;;;;16.69;93.37;98544.03;5094169;28;20491;-81
2023/05/15 10:17:48;;;;;;;9.75;8.85;;;;;;;16.76;92.54;98547.78;5094465;28;20028;-81
2023/05/15 10:20:21;;;;;;;10.02;9.07;;;;;;;16.72;92.07;98556.88;5094110;28;20027;-81
2023/05/15 10:22:52;;;;;;;9.95;9.05;;;;;;;16.75;91.60;98567.16;5094247;28;20063;-81
2023/05/15 10:25:35;;;;;;;10.35;9.45;;;;;;;16.76;90.94;98583.78;5094024;28;20090;-81
2023/05/15 10:28:02;;;;;;;9.80;8.90;;;;;;;16.72;90.51;98572.66;5094453;28;20414;-81
2023/05/15 10:30:27;;;;;;;9.10;8.30;;;;;;;16.85;90.09;98586.41;5093820;28;20030;-81
2023/05/15 10:32:54;;;;;;;9.05;8.23;;;;;;;16.70;88.98;98553.59;5094153;28;20107;-81
2023/05/15 10:35:21;;;;;;;9.00;8.13;;;;;;;17.07;89.27;98587.97;5093776;28;20024;-81
2023/05/15 10:37:47;;;;;;;8.65;7.85;;;;;;;17.20;87.57;98558.75;5093994;28;20027;-81
2023/05/15 10:40:14;;;;;;;9.48;8.60;;;;;;;17.51;86.03;98596.22;5093804;28;20047;-81
2023/05/15 10:42:45;;;;;;;12.18;11.07;;;;;;;17.31;86.11;98573.53;5093440;28;20034;-81
2023/05/15 10:45:10;;;;;;;11.13;10.15;;;;;;;17.19;87.28;98565.81;5093648;28;20036;-80
2023/05/15 10:47:38;;;;;;;11.45;10.45;;;;;;;17.23;87.40;98581.28;5093522;28;20101;-81
2023/05/15 10:50:05;;;;;;;11.27;10.27;;;;;;;17.28;87.66;98590.44;5093695;28;20059;-81
2023/05/15 10:52:35;;;;;;;11.20;10.20;;;;;;;17.30;86.19;98569.25;5093470;28;20024;-81
2023/05/15 10:55:02;;;;;;;9.65;8.75;;;;;;;17.53;86.05;98588.19;5093869;28;20028;-81
2023/05/15 10:57:28;;;;;;;9.98;8.95;;;;;;;17.45;85.55;98557.31;5093270;28;20054;-81
2023/05/15 10:59:54;;;;;;;10.23;9.23;;;;;;;17.71;85.48;98553.09;5093648;28;20028;-81
2023/05/15 11:02:29;;;;;;;9.23;8.43;;;;;;;18.14;84.45;98579.84;5093497;28;20153;-81
2023/05/15 11:05:05;;;;;;;8.65;7.80;;;;;;;18.23;83.29;98573.72;5093361;28;20059;-81
2023/05/15 11:07:30;;;;;;;8.40;7.70;;;;;;;18.10;83.45;98560.88;5092998;28;20553;-81
2023/05/15 11:09:56;;;;;;;8.65;7.85;;;;;;;18.15;82.81;98584.97;5093617;28;20103;-81
2023/05/15 11:12:22;;;;;;;8.07;7.38;;;;;;;18.00;81.23;98585.63;5092695;28;20479;-81
2023/05/15 11:14:50;;;;;;;7.68;6.97;;;;;;;17.93;81.79;98594.06;5093348;28;20479;-81
2023/05/15 11:17:17;;;;;;;8.90;8.10;;;;;;;17.46;82.29;98558.97;5093065;28;20361;-81